sensor_id;sensor_type;location;lat;lon;timestamp;pressure;altitude;pressure_sealevel;temperature;humidity
62926;BME280;55732;52.248;-0.844;2022-11-21T00:00:42;99868.19;;;4.66;88.28
62926;BME280;55732;52.248;-0.844;2022-11-21T00:03:09;99859.46;;;4.65;88.27
62926;BME280;55732;52.248;-0.844;2022-11-21T00:05:38;99855.60;;;4.64;88.43
62926;BME280;55732;52.248;-0.844;2022-11-21T00:08:06;99850.90;;;4.64;88.44
62926;BME280;55732;52.248;-0.844;2022-11-21T00:10:32;99845.13;;;4.63;88.51
62926;BME280;55732;52.248;-0.844;2022-11-21T00:12:57;99844.95;;;4.63;88.37
62926;BME280;55732;52.248;-0.844;2022-11-21T00:15:25;99840.91;;;4.61;88.36
62926;BME280;55732;52.248;-0.844;2022-11-21T00:17:51;99840.21;;;4.60;88.39
62926;BME280;55732;52.248;-0.844;2022-11-21T00:20:18;99843.52;;;4.61;88.37
62926;BME280;55732;52.248;-0.844;2022-11-21T00:22:44;99842.14;;;4.61;88.70
62926;BME280;55732;52.248;-0.844;2022-11-21T00:25:10;99840.60;;;4.63;88.91
62926;BME280;55732;52.248;-0.844;2022-11-21T00:27:35;99840.97;;;4.65;88.95
62926;BME280;55732;52.248;-0.844;2022-11-21T00:30:01;99840.12;;;4.67;88.81
62926;BME280;55732;52.248;-0.844;2022-11-21T00:32:27;99836.48;;;4.68;89.00
62926;BME280;55732;52.248;-0.844;2022-11-21T00:34:52;99833.71;;;4.70;88.90
62926;BME280;55732;52.248;-0.844;2022-11-21T00:37:17;99830.23;;;4.71;88.82
62926;BME280;55732;52.248;-0.844;2022-11-21T00:39:43;99833.54;;;4.72;88.80
62926;BME280;55732;52.248;-0.844;2022-11-21T00:42:08;99834.77;;;4.71;88.61
62926;BME280;55732;52.248;-0.844;2022-11-21T00:44:34;99836.11;;;4.68;88.54
62926;BME280;55732;52.248;-0.844;2022-11-21T00:46:59;99840.97;;;4.65;88.67
62926;BME280;55732;52.248;-0.844;2022-11-21T00:49:24;99840.08;;;4.63;88.68
62926;BME280;55732;52.248;-0.844;2022-11-21T00:51:50;99835.71;;;4.63;88.97
62926;BME280;55732;52.248;-0.844;2022-11-21T00:54:15;99830.67;;;4.64;89.00
62926;BME280;55732;52.248;-0.844;2022-11-21T00:56:41;99823.36;;;4.66;88.88
62926;BME280;55732;52.248;-0.844;2022-11-21T00:59:06;99814.85;;;4.68;88.97
62926;BME280;55732;52.248;-0.844;2022-11-21T01:01:32;99800.55;;;4.68;88.82
62926;BME280;55732;52.248;-0.844;2022-11-21T01:03:58;99803.70;;;4.68;88.83
62926;BME280;55732;52.248;-0.844;2022-11-21T01:06:23;99801.44;;;4.69;88.83
62926;BME280;55732;52.248;-0.844;2022-11-21T01:08:49;99800.40;;;4.70;89.00
62926;BME280;55732;52.248;-0.844;2022-11-21T01:11:16;99807.03;;;4.70;88.91
62926;BME280;55732;52.248;-0.844;2022-11-21T01:13:42;99807.55;;;4.70;88.89
62926;BME280;55732;52.248;-0.844;2022-11-21T01:16:17;99811.90;;;4.69;88.89
62926;BME280;55732;52.248;-0.844;2022-11-21T01:18:44;99817.64;;;4.67;88.98
62926;BME280;55732;52.248;-0.844;2022-11-21T01:21:15;99811.88;;;4.67;89.01
62926;BME280;55732;52.248;-0.844;2022-11-21T01:23:41;99807.34;;;4.67;88.94
62926;BME280;55732;52.248;-0.844;2022-11-21T01:26:10;99809.24;;;4.66;89.12
62926;BME280;55732;52.248;-0.844;2022-11-21T01:28:36;99811.66;;;4.64;88.90
62926;BME280;55732;52.248;-0.844;2022-11-21T01:31:06;99813.57;;;4.63;89.09
62926;BME280;55732;52.248;-0.844;2022-11-21T01:33:33;99823.86;;;4.64;89.04
62926;BME280;55732;52.248;-0.844;2022-11-21T01:36:15;99822.30;;;4.65;89.32
62926;BME280;55732;52.248;-0.844;2022-11-21T01:38:44;99823.90;;;4.66;89.13
62926;BME280;55732;52.248;-0.844;2022-11-21T01:41:11;99825.83;;;4.67;88.98
62926;BME280;55732;52.248;-0.844;2022-11-21T01:43:37;99821.64;;;4.67;89.12
62926;BME280;55732;52.248;-0.844;2022-11-21T01:46:07;99818.52;;;4.68;89.04
62926;BME280;55732;52.248;-0.844;2022-11-21T01:48:40;99812.24;;;4.69;88.95
62926;BME280;55732;52.248;-0.844;2022-11-21T01:51:24;99810.35;;;4.71;88.92
62926;BME280;55732;52.248;-0.844;2022-11-21T01:54:17;99814.18;;;4.72;88.87
62926;BME280;55732;52.248;-0.844;2022-11-21T01:56:56;99805.14;;;4.74;88.74
62926;BME280;55732;52.248;-0.844;2022-11-21T01:59:37;99799.23;;;4.77;88.79
62926;BME280;55732;52.248;-0.844;2022-11-21T02:02:06;99799.08;;;4.78;88.59
62926;BME280;55732;52.248;-0.844;2022-11-21T02:04:34;99796.48;;;4.80;88.59
62926;BME280;55732;52.248;-0.844;2022-11-21T02:07:02;99788.66;;;4.82;88.62
62926;BME280;55732;52.248;-0.844;2022-11-21T02:09:30;99781.52;;;4.83;88.50
62926;BME280;55732;52.248;-0.844;2022-11-21T02:12:00;99777.51;;;4.83;88.41
62926;BME280;55732;52.248;-0.844;2022-11-21T02:14:29;99772.09;;;4.84;88.49
62926;BME280;55732;52.248;-0.844;2022-11-21T02:16:57;99762.33;;;4.84;88.33
62926;BME280;55732;52.248;-0.844;2022-11-21T02:20:00;99754.14;;;4.83;88.35
62926;BME280;55732;52.248;-0.844;2022-11-21T02:25:25;99727.79;;;4.81;88.51
62926;BME280;55732;52.248;-0.844;2022-11-21T02:27:55;99719.05;;;4.80;88.66
62926;BME280;55732;52.248;-0.844;2022-11-21T02:30:22;99713.12;;;4.79;88.51
62926;BME280;55732;52.248;-0.844;2022-11-21T02:32:48;99706.31;;;4.79;88.33
62926;BME280;55732;52.248;-0.844;2022-11-21T02:35:17;99700.02;;;4.77;88.39
62926;BME280;55732;52.248;-0.844;2022-11-21T02:38:18;99699.65;;;4.76;88.45
62926;BME280;55732;52.248;-0.844;2022-11-21T02:40:49;99682.89;;;4.71;88.26
62926;BME280;55732;52.248;-0.844;2022-11-21T02:43:20;99676.76;;;4.68;88.24
62926;BME280;55732;52.248;-0.844;2022-11-21T02:45:47;99677.23;;;4.63;88.33
62926;BME280;55732;52.248;-0.844;2022-11-21T02:48:13;99678.77;;;4.58;88.16
62926;BME280;55732;52.248;-0.844;2022-11-21T02:50:41;99676.63;;;4.53;88.27
62926;BME280;55732;52.248;-0.844;2022-11-21T02:53:11;99669.80;;;4.48;88.36
62926;BME280;55732;52.248;-0.844;2022-11-21T02:55:37;99675.50;;;4.43;88.48
62926;BME280;55732;52.248;-0.844;2022-11-21T02:58:03;99675.45;;;4.38;88.40
62926;BME280;55732;52.248;-0.844;2022-11-21T03:00:28;99675.92;;;4.32;88.36
62926;BME280;55732;52.248;-0.844;2022-11-21T03:02:54;99678.66;;;4.28;88.59
62926;BME280;55732;52.248;-0.844;2022-11-21T03:05:20;99678.82;;;4.25;88.62
62926;BME280;55732;52.248;-0.844;2022-11-21T03:07:47;99673.91;;;4.21;88.49
62926;BME280;55732;52.248;-0.844;2022-11-21T03:10:12;99665.66;;;4.17;88.30
62926;BME280;55732;52.248;-0.844;2022-11-21T03:12:39;99656.40;;;4.12;88.44
62926;BME280;55732;52.248;-0.844;2022-11-21T03:15:07;99654.60;;;4.08;88.60
62926;BME280;55732;52.248;-0.844;2022-11-21T03:17:33;99645.50;;;4.04;88.59
62926;BME280;55732;52.248;-0.844;2022-11-21T03:19:59;99634.52;;;4.01;88.71
62926;BME280;55732;52.248;-0.844;2022-11-21T03:22:25;99636.39;;;3.97;88.67
62926;BME280;55732;52.248;-0.844;2022-11-21T03:24:50;99633.73;;;3.93;88.71
62926;BME280;55732;52.248;-0.844;2022-11-21T03:27:15;99628.30;;;3.89;88.69
62926;BME280;55732;52.248;-0.844;2022-11-21T03:29:41;99622.55;;;3.87;88.76
62926;BME280;55732;52.248;-0.844;2022-11-21T03:32:06;99614.50;;;3.84;88.97
62926;BME280;55732;52.248;-0.844;2022-11-21T03:34:32;99612.04;;;3.83;89.01
62926;BME280;55732;52.248;-0.844;2022-11-21T03:36:57;99603.14;;;3.82;89.05
62926;BME280;55732;52.248;-0.844;2022-11-21T03:39:23;99594.59;;;3.80;88.97
62926;BME280;55732;52.248;-0.844;2022-11-21T03:41:48;99582.91;;;3.76;88.97
62926;BME280;55732;52.248;-0.844;2022-11-21T03:44:13;99575.92;;;3.75;89.09
62926;BME280;55732;52.248;-0.844;2022-11-21T03:46:42;99570.88;;;3.74;89.27
62926;BME280;55732;52.248;-0.844;2022-11-21T03:49:08;99560.23;;;3.72;89.26
62926;BME280;55732;52.248;-0.844;2022-11-21T03:51:35;99554.99;;;3.71;89.25
62926;BME280;55732;52.248;-0.844;2022-11-21T03:54:01;99546.63;;;3.71;89.39
62926;BME280;55732;52.248;-0.844;2022-11-21T03:56:27;99539.49;;;3.70;89.41
62926;BME280;55732;52.248;-0.844;2022-11-21T03:58:53;99536.53;;;3.70;89.51
62926;BME280;55732;52.248;-0.844;2022-11-21T04:01:18;99528.86;;;3.70;89.30
62926;BME280;55732;52.248;-0.844;2022-11-21T04:03:45;99522.92;;;3.68;89.23
62926;BME280;55732;52.248;-0.844;2022-11-21T04:06:12;99524.31;;;3.67;89.20
62926;BME280;55732;52.248;-0.844;2022-11-21T04:08:38;99519.61;;;3.65;89.37
62926;BME280;55732;52.248;-0.844;2022-11-21T04:11:05;99514.55;;;3.64;89.34
62926;BME280;55732;52.248;-0.844;2022-11-21T04:13:31;99513.32;;;3.62;89.22
62926;BME280;55732;52.248;-0.844;2022-11-21T04:15:56;99511.91;;;3.60;89.26
62926;BME280;55732;52.248;-0.844;2022-11-21T04:18:22;99504.04;;;3.58;89.15
62926;BME280;55732;52.248;-0.844;2022-11-21T04:20:47;99502.64;;;3.56;89.19
62926;BME280;55732;52.248;-0.844;2022-11-21T04:23:13;99497.39;;;3.54;89.41
62926;BME280;55732;52.248;-0.844;2022-11-21T04:25:40;99498.09;;;3.54;89.47
62926;BME280;55732;52.248;-0.844;2022-11-21T04:28:06;99491.66;;;3.54;89.60
62926;BME280;55732;52.248;-0.844;2022-11-21T04:30:32;99484.86;;;3.54;89.82
62926;BME280;55732;52.248;-0.844;2022-11-21T04:32:58;99481.38;;;3.55;89.66
62926;BME280;55732;52.248;-0.844;2022-11-21T04:35:24;99473.39;;;3.54;89.57
62926;BME280;55732;52.248;-0.844;2022-11-21T04:37:51;99462.78;;;3.54;89.78
62926;BME280;55732;52.248;-0.844;2022-11-21T04:40:17;99457.73;;;3.54;89.88
62926;BME280;55732;52.248;-0.844;2022-11-21T04:42:43;99454.77;;;3.55;89.82
62926;BME280;55732;52.248;-0.844;2022-11-21T04:45:10;99451.98;;;3.56;89.98
62926;BME280;55732;52.248;-0.844;2022-11-21T04:47:37;99448.17;;;3.57;89.95
62926;BME280;55732;52.248;-0.844;2022-11-21T04:50:03;99436.88;;;3.58;89.91
62926;BME280;55732;52.248;-0.844;2022-11-21T04:52:29;99426.10;;;3.61;89.80
62926;BME280;55732;52.248;-0.844;2022-11-21T04:54:54;99423.67;;;3.61;89.74
62926;BME280;55732;52.248;-0.844;2022-11-21T04:57:19;99413.59;;;3.62;89.80
62926;BME280;55732;52.248;-0.844;2022-11-21T04:59:45;99406.63;;;3.62;89.87
62926;BME280;55732;52.248;-0.844;2022-11-21T05:02:10;99407.16;;;3.62;89.78
62926;BME280;55732;52.248;-0.844;2022-11-21T05:04:35;99409.59;;;3.62;89.84
62926;BME280;55732;52.248;-0.844;2022-11-21T05:07:01;99408.56;;;3.64;89.99
62926;BME280;55732;52.248;-0.844;2022-11-21T05:09:26;99400.71;;;3.66;90.22
62926;BME280;55732;52.248;-0.844;2022-11-21T05:11:52;99391.50;;;3.66;89.85
62926;BME280;55732;52.248;-0.844;2022-11-21T05:14:35;99377.07;;;3.65;89.78
62926;BME280;55732;52.248;-0.844;2022-11-21T05:17:01;99360.98;;;3.58;89.89
62926;BME280;55732;52.248;-0.844;2022-11-21T05:19:26;99348.46;;;3.58;90.13
62926;BME280;55732;52.248;-0.844;2022-11-21T05:21:52;99343.41;;;3.57;90.26
62926;BME280;55732;52.248;-0.844;2022-11-21T05:24:18;99349.31;;;3.56;90.46
62926;BME280;55732;52.248;-0.844;2022-11-21T05:26:43;99348.95;;;3.55;90.48
62926;BME280;55732;52.248;-0.844;2022-11-21T05:29:08;99339.56;;;3.55;90.55
62926;BME280;55732;52.248;-0.844;2022-11-21T05:31:34;99338.34;;;3.55;90.51
62926;BME280;55732;52.248;-0.844;2022-11-21T05:33:59;99336.61;;;3.54;90.57
62926;BME280;55732;52.248;-0.844;2022-11-21T05:36:24;99341.48;;;3.52;90.64
62926;BME280;55732;52.248;-0.844;2022-11-21T05:38:50;99337.29;;;3.52;90.73
62926;BME280;55732;52.248;-0.844;2022-11-21T05:41:15;99328.77;;;3.52;90.57
62926;BME280;55732;52.248;-0.844;2022-11-21T05:43:40;99312.73;;;3.50;90.44
62926;BME280;55732;52.248;-0.844;2022-11-21T05:46:15;99307.15;;;3.48;90.57
62926;BME280;55732;52.248;-0.844;2022-11-21T05:48:41;99298.77;;;3.45;90.65
62926;BME280;55732;52.248;-0.844;2022-11-21T05:51:07;99292.15;;;3.42;90.82
62926;BME280;55732;52.248;-0.844;2022-11-21T05:53:33;99282.92;;;3.40;90.93
62926;BME280;55732;52.248;-0.844;2022-11-21T05:56:07;99277.00;;;3.39;91.06
62926;BME280;55732;52.248;-0.844;2022-11-21T05:58:33;99271.25;;;3.38;91.12
62926;BME280;55732;52.248;-0.844;2022-11-21T06:00:59;99274.20;;;3.37;91.22
62926;BME280;55732;52.248;-0.844;2022-11-21T06:03:26;99268.27;;;3.36;91.31
62926;BME280;55732;52.248;-0.844;2022-11-21T06:06:09;99262.17;;;3.35;91.38
62926;BME280;55732;52.248;-0.844;2022-11-21T06:08:40;99248.23;;;3.33;91.59
62926;BME280;55732;52.248;-0.844;2022-11-21T06:11:08;99241.61;;;3.32;91.62
62926;BME280;55732;52.248;-0.844;2022-11-21T06:13:35;99243.00;;;3.32;91.92
62926;BME280;55732;52.248;-0.844;2022-11-21T06:16:04;99238.84;;;3.33;92.07
62926;BME280;55732;52.248;-0.844;2022-11-21T06:18:32;99234.67;;;3.34;91.94
62926;BME280;55732;52.248;-0.844;2022-11-21T06:21:40;99231.56;;;3.35;91.94
62926;BME280;55732;52.248;-0.844;2022-11-21T06:23:49;99218.50;;;3.35;92.00
62926;BME280;55732;52.248;-0.844;2022-11-21T06:26:17;99216.75;;;3.33;92.14
62926;BME280;55732;52.248;-0.844;2022-11-21T06:28:44;99212.58;;;3.33;92.15
62926;BME280;55732;52.248;-0.844;2022-11-21T06:31:12;99211.36;;;3.34;92.08
62926;BME280;55732;52.248;-0.844;2022-11-21T06:33:38;99202.52;;;3.36;92.02
62926;BME280;55732;52.248;-0.844;2022-11-21T06:36:15;99198.36;;;3.38;91.92
62926;BME280;55732;52.248;-0.844;2022-11-21T06:38:41;99190.54;;;3.39;91.96
62926;BME280;55732;52.248;-0.844;2022-11-21T06:41:15;99189.15;;;3.41;92.03
62926;BME280;55732;52.248;-0.844;2022-11-21T06:43:41;99179.93;;;3.42;91.77
62926;BME280;55732;52.248;-0.844;2022-11-21T06:46:07;99175.39;;;3.43;91.89
62926;BME280;55732;52.248;-0.844;2022-11-21T06:48:33;99169.13;;;3.43;91.90
62926;BME280;55732;52.248;-0.844;2022-11-21T06:51:08;99162.87;;;3.43;91.94
62926;BME280;55732;52.248;-0.844;2022-11-21T06:53:35;99160.95;;;3.43;91.92
62926;BME280;55732;52.248;-0.844;2022-11-21T06:56:01;99156.96;;;3.44;92.01
62926;BME280;55732;52.248;-0.844;2022-11-21T06:58:27;99153.31;;;3.45;92.01
62926;BME280;55732;52.248;-0.844;2022-11-21T07:00:54;99138.18;;;3.46;92.08
62926;BME280;55732;52.248;-0.844;2022-11-21T07:03:19;99125.83;;;3.47;92.13
62926;BME280;55732;52.248;-0.844;2022-11-21T07:05:46;99118.36;;;3.47;92.09
62926;BME280;55732;52.248;-0.844;2022-11-21T07:08:12;99109.30;;;3.47;92.15
62926;BME280;55732;52.248;-0.844;2022-11-21T07:10:37;99099.73;;;3.46;92.24
62926;BME280;55732;52.248;-0.844;2022-11-21T07:13:03;99096.25;;;3.46;92.38
62926;BME280;55732;52.248;-0.844;2022-11-21T07:16:00;99106.00;;;3.46;92.24
62926;BME280;55732;52.248;-0.844;2022-11-21T07:18:26;99100.44;;;3.47;92.26
62926;BME280;55732;52.248;-0.844;2022-11-21T07:20:56;99099.77;;;3.51;92.24
62926;BME280;55732;52.248;-0.844;2022-11-21T07:23:22;99096.98;;;3.52;92.22
62926;BME280;55732;52.248;-0.844;2022-11-21T07:25:47;99090.71;;;3.54;92.28
62926;BME280;55732;52.248;-0.844;2022-11-21T07:28:12;99083.41;;;3.56;92.40
62926;BME280;55732;52.248;-0.844;2022-11-21T07:30:38;99080.45;;;3.57;92.46
62926;BME280;55732;52.248;-0.844;2022-11-21T07:33:05;99078.89;;;3.58;92.52
62926;BME280;55732;52.248;-0.844;2022-11-21T07:35:31;99070.71;;;3.60;92.76
62926;BME280;55732;52.248;-0.844;2022-11-21T07:37:57;99058.54;;;3.61;92.84
62926;BME280;55732;52.248;-0.844;2022-11-21T07:40:23;99052.29;;;3.65;92.71
62926;BME280;55732;52.248;-0.844;2022-11-21T07:42:48;99052.27;;;3.68;92.68
62926;BME280;55732;52.248;-0.844;2022-11-21T07:45:14;99046.02;;;3.69;92.81
62926;BME280;55732;52.248;-0.844;2022-11-21T07:47:41;99042.36;;;3.71;92.87
62926;BME280;55732;52.248;-0.844;2022-11-21T07:50:08;99033.84;;;3.72;92.59
62926;BME280;55732;52.248;-0.844;2022-11-21T07:52:34;99027.93;;;3.72;92.76
62926;BME280;55732;52.248;-0.844;2022-11-21T07:55:00;99019.74;;;3.72;92.70
62926;BME280;55732;52.248;-0.844;2022-11-21T07:57:29;99014.71;;;3.73;92.73
62926;BME280;55732;52.248;-0.844;2022-11-21T07:59:55;99010.19;;;3.74;92.83
62926;BME280;55732;52.248;-0.844;2022-11-21T08:02:23;99003.58;;;3.77;92.77
62926;BME280;55732;52.248;-0.844;2022-11-21T08:04:48;99001.11;;;3.80;92.91
62926;BME280;55732;52.248;-0.844;2022-11-21T08:07:14;98997.30;;;3.83;92.83
62926;BME280;55732;52.248;-0.844;2022-11-21T08:09:40;98992.60;;;3.85;93.03
62926;BME280;55732;52.248;-0.844;2022-11-21T08:12:06;98993.13;;;3.89;92.87
62926;BME280;55732;52.248;-0.844;2022-11-21T08:14:32;98991.02;;;3.91;92.80
62926;BME280;55732;52.248;-0.844;2022-11-21T08:16:58;98989.46;;;3.94;92.69
62926;BME280;55732;52.248;-0.844;2022-11-21T08:19:23;98981.63;;;3.97;92.64
62926;BME280;55732;52.248;-0.844;2022-11-21T08:21:49;98972.77;;;4.00;92.72
62926;BME280;55732;52.248;-0.844;2022-11-21T08:24:14;98963.33;;;4.02;92.59
62926;BME280;55732;52.248;-0.844;2022-11-21T08:26:45;98961.41;;;4.05;92.61
62926;BME280;55732;52.248;-0.844;2022-11-21T08:29:11;98959.33;;;4.08;92.61
62926;BME280;55732;52.248;-0.844;2022-11-21T08:31:37;98957.06;;;4.11;92.52
62926;BME280;55732;52.248;-0.844;2022-11-21T08:34:03;98950.95;;;4.14;92.63
62926;BME280;55732;52.248;-0.844;2022-11-21T08:36:29;98943.63;;;4.16;92.51
62926;BME280;55732;52.248;-0.844;2022-11-21T08:38:54;98940.50;;;4.18;92.30
62926;BME280;55732;52.248;-0.844;2022-11-21T08:41:20;98938.40;;;4.20;92.37
62926;BME280;55732;52.248;-0.844;2022-11-21T08:44:05;98926.39;;;4.22;92.47
62926;BME280;55732;52.248;-0.844;2022-11-21T08:46:32;98917.49;;;4.24;92.52
62926;BME280;55732;52.248;-0.844;2022-11-21T08:49:05;98918.86;;;4.27;92.54
62926;BME280;55732;52.248;-0.844;2022-11-21T08:51:31;98913.98;;;4.29;92.44
62926;BME280;55732;52.248;-0.844;2022-11-21T08:53:57;98911.55;;;4.32;92.38
62926;BME280;55732;52.248;-0.844;2022-11-21T08:56:22;98909.80;;;4.34;92.54
62926;BME280;55732;52.248;-0.844;2022-11-21T08:58:48;98908.90;;;4.38;92.66
62926;BME280;55732;52.248;-0.844;2022-11-21T09:01:14;98910.64;;;4.43;92.68
62926;BME280;55732;52.248;-0.844;2022-11-21T09:03:39;98900.86;;;4.48;92.59
62926;BME280;55732;52.248;-0.844;2022-11-21T09:06:05;98892.64;;;4.53;92.64
62926;BME280;55732;52.248;-0.844;2022-11-21T09:08:31;98880.42;;;4.58;92.62
62926;BME280;55732;52.248;-0.844;2022-11-21T09:10:56;98866.62;;;4.62;92.69
62926;BME280;55732;52.248;-0.844;2022-11-21T09:13:22;98860.86;;;4.66;92.73
62926;BME280;55732;52.248;-0.844;2022-11-21T09:15:47;98854.41;;;4.69;92.64
62926;BME280;55732;52.248;-0.844;2022-11-21T09:18:32;98840.26;;;4.72;92.70
62926;BME280;55732;52.248;-0.844;2022-11-21T09:20:58;98833.09;;;4.75;92.60
62926;BME280;55732;52.248;-0.844;2022-11-21T09:23:23;98826.96;;;4.79;92.65
62926;BME280;55732;52.248;-0.844;2022-11-21T09:25:48;98817.52;;;4.83;92.80
62926;BME280;55732;52.248;-0.844;2022-11-21T09:28:14;98803.71;;;4.88;92.93
62926;BME280;55732;52.248;-0.844;2022-11-21T09:30:40;98789.20;;;4.93;92.87
62926;BME280;55732;52.248;-0.844;2022-11-21T09:33:11;98787.06;;;4.99;92.65
62926;BME280;55732;52.248;-0.844;2022-11-21T09:35:37;98782.85;;;5.04;92.73
62926;BME280;55732;52.248;-0.844;2022-11-21T09:38:03;98778.43;;;5.10;92.70
62926;BME280;55732;52.248;-0.844;2022-11-21T09:40:29;98773.33;;;5.16;92.51
62926;BME280;55732;52.248;-0.844;2022-11-21T09:43:35;98760.71;;;5.21;92.44
62926;BME280;55732;52.248;-0.844;2022-11-21T09:48:45;98743.67;;;5.33;92.16
62926;BME280;55732;52.248;-0.844;2022-11-21T09:51:14;98736.65;;;5.37;92.01
62926;BME280;55732;52.248;-0.844;2022-11-21T09:54:27;98735.05;;;5.41;92.13
62926;BME280;55732;52.248;-0.844;2022-11-21T09:56:56;98730.80;;;5.46;92.05
62926;BME280;55732;52.248;-0.844;2022-11-21T10:01:53;98703.71;;;5.50;91.82
62926;BME280;55732;52.248;-0.844;2022-11-21T10:04:18;98701.61;;;5.51;91.60
62926;BME280;55732;52.248;-0.844;2022-11-21T10:11:58;98664.94;;;5.52;91.70
62926;BME280;55732;52.248;-0.844;2022-11-21T10:17:42;98650.44;;;5.54;92.00
62926;BME280;55732;52.248;-0.844;2022-11-21T10:25:54;98636.73;;;5.60;92.14
62926;BME280;55732;52.248;-0.844;2022-11-21T10:28:41;98631.27;;;5.65;92.07
62926;BME280;55732;52.248;-0.844;2022-11-21T10:31:10;98622.45;;;5.70;91.87
62926;BME280;55732;52.248;-0.844;2022-11-21T10:33:37;98609.13;;;5.75;91.80
62926;BME280;55732;52.248;-0.844;2022-11-21T10:38:43;98596.80;;;5.81;91.93
62926;BME280;55732;52.248;-0.844;2022-11-21T10:41:17;98591.19;;;5.84;91.95
62926;BME280;55732;52.248;-0.844;2022-11-21T10:46:59;98576.30;;;5.89;92.22
62926;BME280;55732;52.248;-0.844;2022-11-21T10:49:28;98560.42;;;5.90;92.35
62926;BME280;55732;52.248;-0.844;2022-11-21T10:52:09;98553.43;;;5.90;92.60
62926;BME280;55732;52.248;-0.844;2022-11-21T10:57:27;98526.19;;;5.87;93.06
62926;BME280;55732;52.248;-0.844;2022-11-21T11:00:14;98516.92;;;5.87;93.22
62926;BME280;55732;52.248;-0.844;2022-11-21T11:02:42;98505.58;;;5.87;93.44
62926;BME280;55732;52.248;-0.844;2022-11-21T11:05:27;98493.00;;;5.88;93.80
62926;BME280;55732;52.248;-0.844;2022-11-21T11:08:12;98485.66;;;5.87;94.32
62926;BME280;55732;52.248;-0.844;2022-11-21T11:10:40;98477.98;;;5.88;94.66
62926;BME280;55732;52.248;-0.844;2022-11-21T11:13:18;98466.46;;;5.89;95.09
62926;BME280;55732;52.248;-0.844;2022-11-21T11:18:23;98452.05;;;5.93;95.79
62926;BME280;55732;52.248;-0.844;2022-11-21T11:20:49;98443.11;;;5.96;96.09
62926;BME280;55732;52.248;-0.844;2022-11-21T11:25:45;98426.29;;;6.00;96.27
62926;BME280;55732;52.248;-0.844;2022-11-21T11:28:12;98421.68;;;6.02;96.37
62926;BME280;55732;52.248;-0.844;2022-11-21T11:30:39;98424.25;;;6.05;96.45
62926;BME280;55732;52.248;-0.844;2022-11-21T11:35:55;98399.36;;;6.09;96.68
62926;BME280;55732;52.248;-0.844;2022-11-21T11:38:25;98383.96;;;6.12;96.89
62926;BME280;55732;52.248;-0.844;2022-11-21T11:40:52;98384.41;;;6.15;97.05
62926;BME280;55732;52.248;-0.844;2022-11-21T11:43:36;98379.83;;;6.17;96.95
62926;BME280;55732;52.248;-0.844;2022-11-21T11:46:32;98372.27;;;6.20;97.20
62926;BME280;55732;52.248;-0.844;2022-11-21T11:49:37;98357.20;;;6.22;97.36
62926;BME280;55732;52.248;-0.844;2022-11-21T11:52:27;98343.52;;;6.25;97.85
62926;BME280;55732;52.248;-0.844;2022-11-21T11:55:05;98329.47;;;6.27;97.82
62926;BME280;55732;52.248;-0.844;2022-11-21T11:57:34;98317.89;;;6.30;97.80
62926;BME280;55732;52.248;-0.844;2022-11-21T12:06:05;98264.55;;;6.31;98.43
62926;BME280;55732;52.248;-0.844;2022-11-21T12:08:47;98266.80;;;6.40;98.30
62926;BME280;55732;52.248;-0.844;2022-11-21T12:11:40;98257.50;;;6.42;98.30
62926;BME280;55732;52.248;-0.844;2022-11-21T12:17:10;98244.33;;;6.45;98.81
62926;BME280;55732;52.248;-0.844;2022-11-21T12:19:38;98233.31;;;6.46;98.94
62926;BME280;55732;52.248;-0.844;2022-11-21T12:22:04;98229.27;;;6.47;98.95
62926;BME280;55732;52.248;-0.844;2022-11-21T12:24:32;98220.33;;;6.48;98.97
62926;BME280;55732;52.248;-0.844;2022-11-21T12:27:09;98217.98;;;6.50;99.29
62926;BME280;55732;52.248;-0.844;2022-11-21T12:40:49;98170.23;;;6.60;99.77
62926;BME280;55732;52.248;-0.844;2022-11-21T12:43:41;98157.40;;;6.62;99.81
62926;BME280;55732;52.248;-0.844;2022-11-21T12:46:10;98138.98;;;6.65;99.96
62926;BME280;55732;52.248;-0.844;2022-11-21T12:58:15;98094.69;;;6.74;100.00
62926;BME280;55732;52.248;-0.844;2022-11-21T13:03:58;98077.38;;;6.81;100.00
62926;BME280;55732;52.248;-0.844;2022-11-21T13:06:28;98061.55;;;6.83;100.00
62926;BME280;55732;52.248;-0.844;2022-11-21T13:08:56;98054.84;;;6.86;100.00
62926;BME280;55732;52.248;-0.844;2022-11-21T13:11:58;98042.38;;;6.87;100.00
62926;BME280;55732;52.248;-0.844;2022-11-21T13:14:35;98032.69;;;6.90;100.00
62926;BME280;55732;52.248;-0.844;2022-11-21T13:17:13;98023.88;;;6.93;100.00
62926;BME280;55732;52.248;-0.844;2022-11-21T13:25:01;97996.23;;;6.99;100.00
62926;BME280;55732;52.248;-0.844;2022-11-21T13:45:41;97962.84;;;7.10;100.00
62926;BME280;55732;52.248;-0.844;2022-11-21T13:59:58;97917.18;;;7.21;100.00
62926;BME280;55732;52.248;-0.844;2022-11-21T14:05:22;97892.30;;;7.23;100.00
62926;BME280;55732;52.248;-0.844;2022-11-21T14:08:19;97892.61;;;7.30;100.00
62926;BME280;55732;52.248;-0.844;2022-11-21T14:10:47;97885.69;;;7.32;100.00
62926;BME280;55732;52.248;-0.844;2022-11-21T14:13:27;97881.20;;;7.36;100.00
62926;BME280;55732;52.248;-0.844;2022-11-21T14:18:42;97871.19;;;7.43;100.00
62926;BME280;55732;52.248;-0.844;2022-11-21T14:23:44;97862.25;;;7.48;100.00
62926;BME280;55732;52.248;-0.844;2022-11-21T14:26:15;97846.79;;;7.50;100.00
62926;BME280;55732;52.248;-0.844;2022-11-21T14:28:45;97840.09;;;7.51;100.00
62926;BME280;55732;52.248;-0.844;2022-11-21T14:31:12;97838.65;;;7.52;100.00
62926;BME280;55732;52.248;-0.844;2022-11-21T14:33:45;97829.36;;;7.53;100.00
62926;BME280;55732;52.248;-0.844;2022-11-21T14:38:54;97815.52;;;7.53;100.00
62926;BME280;55732;52.248;-0.844;2022-11-21T14:41:24;97810.81;;;7.52;100.00
62926;BME280;55732;52.248;-0.844;2022-11-21T14:46:23;97800.90;;;7.51;100.00
62926;BME280;55732;52.248;-0.844;2022-11-21T14:48:49;97794.45;;;7.50;100.00
62926;BME280;55732;52.248;-0.844;2022-11-21T14:51:19;97788.01;;;7.48;100.00
62926;BME280;55732;52.248;-0.844;2022-11-21T14:53:46;97779.29;;;7.47;100.00
62926;BME280;55732;52.248;-0.844;2022-11-21T14:56:24;97777.20;;;7.47;100.00
62926;BME280;55732;52.248;-0.844;2022-11-21T14:58:52;97774.77;;;7.46;100.00
62926;BME280;55732;52.248;-0.844;2022-11-21T15:01:27;97772.20;;;7.45;100.00
62926;BME280;55732;52.248;-0.844;2022-11-21T15:03:58;97768.18;;;7.44;100.00
62926;BME280;55732;52.248;-0.844;2022-11-21T15:06:26;97763.80;;;7.44;100.00
62926;BME280;55732;52.248;-0.844;2022-11-21T15:08:55;97769.58;;;7.45;100.00
62926;BME280;55732;52.248;-0.844;2022-11-21T15:11:42;97750.11;;;7.45;100.00